Flight Track Log - Related Links

Times and Time Zones

All times are in EDT time to prevent confusion due to time zone crossing. See the THY1056 flight status page for this flight to view local times or setup timezone preferences in your user account.

Time Position Orientation Groundspeed Altitude Reporting Facility
EDT Latitude Longitude Course Direction KTS MPH feet Rate Location/Type
Sat 02:18:58 PM 45.7580 16.4820 106° East 337 388 11,300  Level FlightAware ADS-B
Sat 02:19:48 PM 45.7350 16.5900 107° East 352 405 13,700 2,810 Climbing FlightAware ADS-B
Sat 02:21:04 PM 45.6970 16.7690 107° East 373 429 17,200 2,817 Climbing FlightAware ADS-B
Sat 02:21:43 PM 45.6770 16.8630 107° East 379 436 19,100 2,286 Climbing FlightAware ADS-B
Sat 02:22:28 PM 45.6550 16.9620 108° East 395 455 20,400 2,200 Climbing FlightAware ADS-B
Sat 02:23:13 PM 45.6290 17.0830 107° East 398 458 22,400 2,259 Climbing FlightAware ADS-B
Sat 02:23:53 PM 45.6060 17.1890 107° East 410 472 23,600 1,875 Climbing FlightAware ADS-B
Sat 02:24:33 PM 45.5830 17.2940 107° East 415 478 24,900 1,765 Climbing FlightAware ADS-B
Sat 02:25:18 PM 45.5580 17.4060 108° East 430 495 26,100 1,624 Climbing FlightAware ADS-B
Sat 02:25:58 PM 45.5350 17.5130 107° East 440 506 27,200 1,650 Climbing FlightAware ADS-B
Sat 02:26:38 PM 45.5080 17.6340 108° East 447 514 28,300 1,667 Climbing FlightAware ADS-B
Sat 02:27:28 PM 45.4750 17.7790 108° East 456 525 29,700 1,600 Climbing FlightAware ADS-B
Sat 02:28:08 PM 45.4500 17.8940 107° East 462 532 30,700 1,553 Climbing FlightAware ADS-B
Sat 02:28:53 PM 45.4210 18.0220 108° East 462 532 31,900 1,667 Climbing FlightAware ADS-B
Sat 02:29:38 PM 45.3910 18.1520 108° East 464 534 33,200 1,400 Climbing FlightAware ADS-B
Sat 02:30:23 PM 45.3600 18.2890 108° East 474 545 34,000 1,341 Climbing FlightAware ADS-B
Sat 02:31:03 PM 45.3330 18.4060 108° East 472 543 35,100 1,271 Climbing FlightAware ADS-B
Sat 02:31:48 PM 45.3000 18.5390 109° East 479 551 35,800 847 Climbing FlightAware ADS-B
Sat 02:32:28 PM 45.2590 18.6510 117° Southeast 484 557 36,300 847 Climbing FlightAware ADS-B
Sat 02:33:13 PM 45.2090 18.7780 119° Southeast 492 566 37,000 494 Climbing FlightAware ADS-B
Sat 02:33:53 PM 45.1650 18.8930 118° Southeast 485 558 37,000  Level FlightAware ADS-B
Sat 02:34:28 PM 45.1280 18.9890 119° Southeast 485 558 37,000  Level FlightAware ADS-B
Sat 02:35:08 PM 45.0840 19.1030 119° Southeast 485 558 37,000  Level FlightAware ADS-B
Sat 02:35:53 PM 45.0350 19.2250 120° Southeast 489 563 37,000  Level FlightAware ADS-B
Sat 02:36:33 PM 44.9890 19.3390 120° Southeast 489 563 37,000  Level FlightAware ADS-B
Sat 02:37:19 PM 44.9400 19.4620 119° Southeast 490 564 37,000  Level FlightAware ADS-B
Sat 02:37:58 PM 44.8940 19.5750 120° Southeast 493 567 37,000  Level FlightAware ADS-B
Sat 02:38:43 PM 44.8440 19.6990 120° Southeast 494 568 37,000 71 Level FlightAware ADS-B
Sat 02:39:23 PM 44.7980 19.8110 120° Southeast 493 567 37,100  Climbing FlightAware ADS-B
Sat 02:40:08 PM 44.7480 19.9340 120° Southeast 493 567 37,000 -75 Descending FlightAware ADS-B
Sat 02:40:43 PM 44.7100 20.0260 120° Southeast 493 567 37,000  Level FlightAware ADS-B
Sat 02:41:45 PM 44.6360 20.2070 120° Southeast 492 566 37,000  Level FlightAware ADS-B
Sat 02:42:24 PM 44.5920 20.3140 120° Southeast 491 565 37,000  Level FlightAware ADS-B
Sat 02:43:08 PM 44.5400 20.4380 120° Southeast 492 566 37,000  Level FlightAware ADS-B
Sat 02:43:44 PM 44.5010 20.5320 120° Southeast 492 566 37,000  Level FlightAware ADS-B
Sat 02:44:24 PM 44.4540 20.6440 120° Southeast 491 565 37,000  Level FlightAware ADS-B
Sat 02:45:06 PM 44.4060 20.7570 121° Southeast 493 567 37,000  Level FlightAware ADS-B
Sat 02:45:51 PM 44.3560 20.8770 120° Southeast 493 567 37,000  Level FlightAware ADS-B
Sat 02:46:28 PM 44.3110 20.9820 121° Southeast 492 566 37,000  Level FlightAware ADS-B
Sat 02:47:15 PM 44.2560 21.1120 121° Southeast 491 565 37,000  Level FlightAware ADS-B
Sat 02:47:55 PM 44.2120 21.2160 121° Southeast 492 566 37,000  Level FlightAware ADS-B
Sat 02:48:37 PM 44.1600 21.3350 121° Southeast 491 565 37,000  Level FlightAware ADS-B
Sat 02:49:17 PM 44.1130 21.4450 121° Southeast 492 566 37,000  Level FlightAware ADS-B
Sat 02:50:01 PM 44.0610 21.5650 121° Southeast 490 564 37,000  Level FlightAware ADS-B
Sat 02:50:45 PM 44.0100 21.6820 121° Southeast 490 564 37,000  Level FlightAware ADS-B
Sat 02:51:25 PM 43.9640 21.7870 121° Southeast 490 564 37,000  Level FlightAware ADS-B
Sat 02:52:07 PM 43.9140 21.9030 121° Southeast 491 565 37,000  Level FlightAware ADS-B
Sat 02:52:47 PM 43.8660 22.0110 122° Southeast 491 565 37,000  Level FlightAware ADS-B
Sat 02:53:33 PM 43.8120 22.1340 121° Southeast 492 566 37,000  Level FlightAware ADS-B
Sat 02:54:13 PM 43.7650 22.2410 121° Southeast 492 566 37,000  Level FlightAware ADS-B
Sat 02:54:57 PM 43.7120 22.3590 122° Southeast 494 568 37,000  Level FlightAware ADS-B
Sat 02:55:37 PM 43.6640 22.4660 122° Southeast 495 570 37,000  Level FlightAware ADS-B
Sat 02:56:15 PM 43.6170 22.5680 122° Southeast 494 568 37,000  Level FlightAware ADS-B
Sat 02:57:03 PM 43.5570 22.6970 123° Southeast 495 570 37,000  Level FlightAware ADS-B
Sat 02:57:45 PM 43.5060 22.8070 123° Southeast 494 568 37,000  Level FlightAware ADS-B
Sat 02:58:23 PM 43.4600 22.9070 122° Southeast 493 567 37,000  Level FlightAware ADS-B
Sat 02:59:07 PM 43.4050 23.0240 123° Southeast 491 565 37,000  Level FlightAware ADS-B
Sat 02:59:49 PM 43.3550 23.1310 123° Southeast 490 564 37,000  Level FlightAware ADS-B
Sat 03:00:33 PM 43.2990 23.2480 123° Southeast 490 564 37,000  Level FlightAware ADS-B
Sat 03:01:13 PM 43.2560 23.3400 123° Southeast 489 563 37,000  Level FlightAware ADS-B
Sat 03:01:57 PM 43.2010 23.4550 123° Southeast 489 563 37,000  Level FlightAware ADS-B
Sat 03:02:37 PM 43.1640 23.5340 123° Southeast 489 563 37,000  Level FlightAware ADS-B
Sat 03:03:16 PM 43.1050 23.6550 124° Southeast 489 563 37,000  Level FlightAware ADS-B
Sat 03:03:59 PM 43.0450 23.7810 123° Southeast 489 563 37,000  Level FlightAware ADS-B
Sat 03:04:41 PM 42.9910 23.8940 123° Southeast 489 563 37,000 71 Level FlightAware ADS-B
Sat 03:05:24 PM 42.9440 23.9910 123° Southeast 488 562 37,100  Climbing FlightAware ADS-B
Sat 03:06:07 PM 42.8860 24.1110 123° Southeast 488 562 37,000 -77 Descending FlightAware ADS-B
Sat 03:06:42 PM 42.8440 24.2010 122° Southeast 487 560 37,000  Level FlightAware ADS-B
Sat 03:07:22 PM 42.8000 24.3110 119° Southeast 489 563 37,000  Level FlightAware ADS-B
Sat 03:07:57 PM 42.7630 24.4050 118° Southeast 490 564 37,000  Level FlightAware ADS-B
Sat 03:08:42 PM 42.7140 24.5290 118° Southeast 490 564 37,000 75 Level FlightAware ADS-B
Sat 03:09:17 PM 42.6800 24.6150 118° Southeast 478 550 37,100  Climbing FlightAware ADS-B
Sat 03:09:57 PM 42.6340 24.7280 119° Southeast 486 559 37,000 -75 Descending FlightAware ADS-B
Sat 03:10:37 PM 42.5910 24.8350 119° Southeast 483 556 37,000  Level FlightAware ADS-B
Sat 03:11:17 PM 42.5500 24.9360 119° Southeast 492 566 37,000  Level FlightAware ADS-B
Sat 03:11:55 PM 42.5100 25.0350 119° Southeast 492 566 37,000  Level FlightAware ADS-B
Sat 03:12:37 PM 42.4600 25.1580 119° Southeast 492 566 37,000  Level FlightAware ADS-B
Sat 03:13:16 PM 42.4170 25.2650 119° Southeast 491 565 37,000  Level FlightAware ADS-B
Sat 03:14:02 PM 42.3680 25.3830 119° Southeast 488 562 37,000  Level FlightAware ADS-B
Sat 03:14:41 PM 42.3260 25.4860 119° Southeast 487 560 37,000  Level FlightAware ADS-B
Sat 03:15:29 PM 42.2710 25.6180 119° Southeast 483 556 37,000  Level FlightAware ADS-B
Sat 03:16:04 PM 42.2340 25.7090 119° Southeast 481 554 37,000  Level FlightAware ADS-B
Sat 03:16:44 PM 42.1920 25.8100 119° Southeast 478 550 37,000  Level FlightAware ADS-B
Sat 03:17:24 PM 42.1490 25.9130 119° Southeast 479 551 37,000 -365 Level FlightAware ADS-B
Sat 03:18:39 PM 42.0660 26.1110 119° Southeast 480 552 36,300 -706 Descending FlightAware ADS-B
Sat 03:19:23 PM 42.0210 26.2170 120° Southeast 485 558 35,600 -1,224 Descending FlightAware ADS-B
Sat 03:20:17 PM 41.9630 26.3560 119° Southeast 491 565 34,300 -1,516 Descending FlightAware ADS-B
Sat 03:20:58 PM 41.9140 26.4700 120° Southeast 479 551 33,200 -1,920 Descending FlightAware ADS-B
Sat 03:21:32 PM 41.8750 26.5600 120° Southeast 478 550 31,900 -2,063 Descending FlightAware ADS-B
Sat 03:22:34 PM 41.7970 26.7140 124° Southeast 457 526 29,900 -1,500 Descending FlightAware ADS-B
Sat 03:24:00 PM 41.7070 26.8890 125° Southeast 435 501 28,200 -1,450 Descending FlightAware ADS-B
Sat 03:24:34 PM 41.6580 26.9820 125° Southeast 429 494 27,000 -1,671 Descending FlightAware ADS-B
Sat 03:25:19 PM 41.6110 27.0730 125° Southeast 423 487 26,000 -1,259 Descending FlightAware ADS-B
Sat 03:25:55 PM 41.5700 27.1530 124° Southeast 401 461 25,300 -800 Descending FlightAware ADS-B
Sat 03:26:34 PM 41.5300 27.2280 125° Southeast 401 461 25,000 -214 Descending FlightAware ADS-B
Sat 03:27:19 PM 41.4810 27.3200 125° Southeast 397 457 25,000  Level FlightAware ADS-B
Sat 03:27:59 PM 41.4380 27.4020 125° Southeast 396 456 25,000 -141 Level FlightAware ADS-B
Sat 03:28:44 PM 41.3900 27.4920 125° Southeast 395 455 24,800 -533 Descending FlightAware ADS-B
Sat 03:29:29 PM 41.3410 27.5820 126° Southeast 395 455 24,200 -889 Descending FlightAware ADS-B
Sat 03:30:05 PM 41.3050 27.6490 126° Southeast 390 449 23,600 -1,040 Descending FlightAware ADS-B
Sat 03:30:44 PM 41.2630 27.7270 126° Southeast 388 447 22,900 -1,040 Descending FlightAware ADS-B
Sat 03:31:20 PM 41.2270 27.7940 126° Southeast 384 442 22,300 -918 Descending FlightAware ADS-B
Sat 03:32:09 PM 41.1750 27.8920 125° Southeast 384 442 21,600 -809 Descending FlightAware ADS-B
Sat 03:32:49 PM 41.1360 27.9630 126° Southeast 376 433 21,100 -1,200 Descending FlightAware ADS-B
Sat 03:33:59 PM 41.0800 28.1060 117° Southeast 337 388 19,400 -1,200 Descending FlightAware ADS-B
Sat 03:34:29 PM 41.0930 28.1580 72° East 295 339 19,100 -686 Descending FlightAware ADS-B
Sat 03:35:09 PM 41.1220 28.2200 58° Northeast 284 327 18,600 -918 Descending FlightAware ADS-B
Sat 03:35:54 PM 41.1540 28.2890 58° Northeast 286 329 17,800 -988 Descending FlightAware ADS-B
Sat 03:36:34 PM 41.1790 28.3430 58° Northeast 282 325 17,200 -963 Descending FlightAware ADS-B
Sat 03:37:15 PM 41.2070 28.4020 58° Northeast 266 306 16,500 -1,091 Descending FlightAware ADS-B
Sat 03:37:29 PM 41.2150 28.4290 68° East 281 323 16,200 -1,222 Descending FlightAware ADS-B
Sat 03:38:09 PM 41.1950 28.4940 112° Southeast 302 348 15,400 -1,185 Descending FlightAware ADS-B
Sat 03:38:50 PM 41.1490 28.5320 148° Southeast 304 350 14,600 -1,200 Descending FlightAware ADS-B
Sat 03:39:29 PM 41.0990 28.5730 148° Southeast 290 334 13,800 -1,291 Descending FlightAware ADS-B
Sat 03:40:09 PM 41.0560 28.6080 148° Southeast 290 334 12,900 -1,385 Descending FlightAware ADS-B
Sat 03:40:34 PM 41.0240 28.6250 158° South 291 335 12,300 -1,435 Descending FlightAware ADS-B
Sat 03:40:55 PM 40.9970 28.6150 196° South 284 327 11,800 -1,400 Descending FlightAware ADS-B
Sat 03:41:04 PM 40.9880 28.6040 223° Southwest 278 320 11,600 -1,556 Descending FlightAware ADS-B
Sat 03:41:49 PM 40.9570 28.5380 238° Southwest 258 297 10,400 -1,690 Descending FlightAware ADS-B
Sat 03:42:15 PM 40.9420 28.5080 237° Southwest 264 304 9,600 -1,971 Descending FlightAware ADS-B
Sat 03:42:59 PM 40.9110 28.4410 239° Southwest 270 311 8,100 -1,700 Descending FlightAware ADS-B
Sat 03:43:15 PM 40.9020 28.4220 238° Southwest 264 304 7,900 -1,029 Descending FlightAware ADS-B
Sat 03:43:34 PM 40.8890 28.3940 238° Southwest 263 303 7,500 -590 Descending FlightAware ADS-B
Sat 03:44:16 PM 40.8670 28.3450 239° Southwest 263 303 7,300 -912 Descending FlightAware ADS-B
Sat 03:44:39 PM 40.8450 28.3020 236° Southwest 6,500 -1,229 Descending FlightAware ADS-B
Sat 03:45:39 PM 40.7850 28.2890 189° South 233 268 5,600 -847 Descending FlightAware ADS-B
Sat 03:46:04 PM 40.7760 28.3160 114° Southeast 233 268 5,300 -600 Descending FlightAware ADS-B
Sat 03:46:29 PM 40.7710 28.3470 102° East 209 241 5,100 -300 Descending FlightAware ADS-B
Sat 03:47:04 PM 40.7720 28.3930 88° East 188 216 5,000 -109 Descending FlightAware ADS-B
Sat 03:47:24 PM 40.7810 28.4140 60° Northeast 183 211 5,000  Level FlightAware ADS-B
Sat 03:47:51 PM 40.7910 28.4360 59° Northeast 171 197 5,000  Level FlightAware ADS-B
Sat 03:48:19 PM 40.8050 28.4640 57° Northeast 167 192 5,000  Level FlightAware ADS-B
Sat 03:48:44 PM 40.8160 28.4870 58° Northeast 168 193 5,000 -86 Level FlightAware ADS-B
Sat 03:49:29 PM 40.8330 28.5250 59° Northeast 171 197 4,900 -400 Descending FlightAware ADS-B
Sat 03:49:59 PM 40.8460 28.5530 58° Northeast 170 196 4,500 -930 Descending FlightAware ADS-B
Sat 03:50:40 PM 40.8630 28.5900 59° Northeast 169 194 3,800 -931 Descending FlightAware ADS-B
Sat 03:51:55 PM 40.8940 28.6550 58° Northeast 162 186 2,700 -944 Descending FlightAware ADS-B
Sat 03:52:09 PM 40.9010 28.6710 60° Northeast 162 186 2,400 -923 Descending FlightAware ADS-B
Sat 03:52:34 PM 40.9110 28.6920 58° Northeast 162 186 2,100 -800 Descending FlightAware ADS-B
Sat 03:53:09 PM 40.9240 28.7200 58° Northeast 142 163 1,600 -764 Descending FlightAware ADS-B
Sat 03:53:29 PM 40.9310 28.7350 58° Northeast 138 159 1,400 -667 Descending FlightAware ADS-B
Sat 03:53:54 PM 40.9380 28.7500 58° Northeast 111 128 1,100 -667 Descending FlightAware ADS-B
Sat 03:54:05 PM 40.9410 28.7580 64° Northeast 111 128 1,000 -522 Descending FlightAware ADS-B
Sat 03:54:40 PM 40.9500 28.7770 58° Northeast 112 129 700 -290 Descending FlightAware ADS-B
Sat 03:55:07 PM 40.9560 28.7910 60° Northeast 112 129 700  Level FlightAware ADS-B
Sat 03:56:31 PM 40.9760 28.8330 58° Northeast 55 63 -500 Descending FlightAware ADS-B
Sat 03:59:00 PM 40.9769 28.8211 276° West  Level Estimated
Sat 04:00:01 PM 40.9760 28.8250 276° West 5 6  Level FlightAware ADS-B

Login

Don't have an account? Register now (free) for customized features, flight alerts, and more!